Time;durP1;ratioP1;P1;durP2;ratioP2;P2;SDS_P1;SDS_P2;PMS_P1;PMS_P2;Temp;Humidity;BMP_temperature;BMP_pressure;BME280_temperature;BME280_humidity;BME280_pressure;Samples;Min_cycle;Max_cycle;Signal;HPM_P1;HPM_P2
2023/08/10 00:00:12;;;;;;;14.90;5.53;;;28.00;99.90;;;;;;5011867;28;20068;-52
2023/08/10 00:02:39;;;;;;;17.63;5.78;;;28.00;99.90;;;;;;5011802;28;20042;-52
2023/08/10 00:05:05;;;;;;;20.25;5.70;;;28.00;99.90;;;;;;5011654;28;20105;-53
2023/08/10 00:07:31;;;;;;;11.38;5.18;;;28.00;99.90;;;;;;5011464;28;20042;-53
2023/08/10 00:09:57;;;;;;;17.92;5.90;;;28.00;99.90;;;;;;5017346;28;20438;-52
2023/08/10 00:12:23;;;;;;;14.82;5.95;;;28.00;99.90;;;;;;5018327;28;20057;-52
2023/08/10 00:14:49;;;;;;;16.95;7.25;;;28.00;99.90;;;;;;5018213;28;20378;-52
2023/08/10 00:17:18;;;;;;;19.65;7.47;;;28.00;99.90;;;;;;5018388;28;20033;-53
2023/08/10 00:19:44;;;;;;;22.35;7.68;;;28.00;99.90;;;;;;5018489;28;20065;-52
2023/08/10 00:22:10;;;;;;;18.15;8.05;;;28.00;99.90;;;;;;5018172;28;20029;-51
2023/08/10 00:24:37;;;;;;;19.83;8.30;;;28.00;99.90;;;;;;5018224;28;20037;-52
2023/08/10 00:27:04;;;;;;;19.40;7.07;;;28.00;99.90;;;;;;5018187;28;20037;-52
2023/08/10 00:29:29;;;;;;;12.93;5.47;;;28.00;99.90;;;;;;5018200;28;20018;-52
2023/08/10 00:31:55;;;;;;;23.27;7.25;;;28.00;99.90;;;;;;5017953;28;20386;-52
2023/08/10 00:34:21;;;;;;;16.80;7.30;;;28.00;99.90;;;;;;5017975;28;20021;-51
2023/08/10 00:36:47;;;;;;;23.30;7.78;;;27.90;99.90;;;;;;5018031;28;20025;-51
2023/08/10 00:39:12;;;;;;;25.48;8.00;;;27.90;99.90;;;;;;5018250;28;20029;-51
2023/08/10 00:41:38;;;;;;;19.65;7.97;;;27.80;99.90;;;;;;5017777;28;20026;-52
2023/08/10 00:44:04;;;;;;;18.38;7.80;;;27.80;99.90;;;;;;5016603;28;20466;-51
2023/08/10 00:46:31;;;;;;;22.30;8.57;;;27.80;99.90;;;;;;5017733;28;20037;-50
2023/08/10 00:48:57;;;;;;;22.40;7.55;;;27.70;99.90;;;;;;5017686;28;20020;-51
2023/08/10 00:51:24;;;;;;;23.27;9.60;;;27.70;99.90;;;;;;5017865;28;20025;-51
2023/08/10 00:53:50;;;;;;;28.55;9.15;;;27.70;99.90;;;;;;5017806;28;20116;-51
2023/08/10 00:56:17;;;;;;;22.60;8.85;;;27.70;99.90;;;;;;5017947;28;20038;-51
2023/08/10 00:58:43;;;;;;;14.25;8.15;;;27.70;99.90;;;;;;5018138;28;20022;-51
2023/08/10 01:01:09;;;;;;;16.20;7.53;;;27.60;99.90;;;;;;5031423;23;20050;-51
2023/08/10 01:03:35;;;;;;;20.23;8.75;;;27.60;99.90;;;;;;5017708;28;20037;-51
2023/08/10 01:06:32;;;;;;;23.17;9.68;;;27.60;99.90;;;;;;5017789;28;20394;-52
2023/08/10 01:09:21;;;;;;;19.38;7.82;;;27.60;99.90;;;;;;5017643;28;20053;-52
2023/08/10 01:12:04;;;;;;;20.73;8.25;;;27.50;99.90;;;;;;5017751;28;20030;-52
2023/08/10 01:14:42;;;;;;;26.08;8.98;;;27.50;99.90;;;;;;5016342;28;20030;-53
2023/08/10 01:17:16;;;;;;;20.25;8.32;;;27.40;99.90;;;;;;5017776;28;20911;-52
2023/08/10 01:19:43;;;;;;;20.73;8.27;;;27.40;99.90;;;;;;5017053;28;20084;-52
2023/08/10 01:22:42;;;;;;;24.48;8.75;;;27.30;99.90;;;;;;5012779;28;20490;-52
2023/08/10 01:25:09;;;;;;;22.45;9.18;;;27.30;99.90;;;;;;5002658;28;20034;-52
2023/08/10 01:27:36;;;;;;;20.98;9.23;;;27.30;99.90;;;;;;5014520;28;20040;-52
2023/08/10 01:30:04;;;;;;;24.55;8.38;;;27.30;99.90;;;;;;5014385;28;20436;-52
2023/08/10 01:32:32;;;;;;;18.48;8.23;;;27.30;99.90;;;;;;5014291;28;20029;-51
2023/08/10 01:34:59;;;;;;;16.50;8.93;;;27.30;99.90;;;;;;5014564;28;20367;-52
2023/08/10 01:37:25;;;;;;;18.42;8.30;;;27.30;99.90;;;;;;5013489;28;20037;-53
2023/08/10 01:39:51;;;;;;;21.42;8.52;;;27.30;99.90;;;;;;5014353;28;20026;-52
2023/08/10 01:42:18;;;;;;;25.65;8.38;;;27.30;99.90;;;;;;5014695;28;20478;-52
2023/08/10 01:44:44;;;;;;;17.37;7.70;;;27.30;99.90;;;;;;5014336;28;20061;-52
2023/08/10 01:47:32;;;;;;;18.25;7.68;;;27.30;99.90;;;;;;5012942;28;20310;-52
2023/08/10 01:50:02;;;;;;;23.55;8.80;;;27.40;99.90;;;;;;5012635;28;20049;-52
2023/08/10 01:52:33;;;;;;;18.25;8.77;;;27.40;99.90;;;;;;5013884;28;20382;-52
2023/08/10 01:54:59;;;;;;;18.17;8.40;;;27.40;99.90;;;;;;5012931;28;20022;-52
2023/08/10 01:57:28;;;;;;;15.80;6.82;;;27.50;99.90;;;;;;5012616;28;20064;-51
2023/08/10 01:59:54;;;;;;;18.02;7.47;;;27.50;99.90;;;;;;5013979;28;20026;-52
2023/08/10 02:02:20;;;;;;;18.80;6.68;;;27.50;99.90;;;;;;5014510;28;20410;-52
2023/08/10 02:04:46;;;;;;;14.45;5.80;;;27.50;99.90;;;;;;5013748;28;20029;-52
2023/08/10 02:07:12;;;;;;;13.18;5.15;;;27.50;99.90;;;;;;5013679;28;20053;-52
2023/08/10 02:09:38;;;;;;;9.85;4.45;;;27.50;99.90;;;;;;5013699;28;20022;-51
2023/08/10 02:12:04;;;;;;;10.93;4.47;;;27.50;99.90;;;;;;5013385;28;20048;-52
2023/08/10 02:14:30;;;;;;;14.95;4.60;;;27.50;99.90;;;;;;5013468;28;20624;-51
2023/08/10 02:16:56;;;;;;;15.23;3.92;;;27.50;99.90;;;;;;5013414;28;20429;-52
2023/08/10 02:19:22;;;;;;;9.57;3.90;;;27.50;99.90;;;;;;5013686;28;20462;-52
2023/08/10 02:21:49;;;;;;;12.83;4.07;;;27.50;99.90;;;;;;5013738;28;20084;-52
2023/08/10 02:24:15;;;;;;;10.17;3.50;;;27.50;99.90;;;;;;5013462;28;20084;-52
2023/08/10 02:26:41;;;;;;;13.32;4.15;;;27.50;99.90;;;;;;5013228;28;20030;-53
2023/08/10 02:29:06;;;;;;;9.25;3.92;;;27.50;99.90;;;;;;5011725;28;20025;-52
2023/08/10 02:31:32;;;;;;;15.55;4.60;;;27.50;99.90;;;;;;5012769;28;20030;-52
2023/08/10 02:33:58;;;;;;;14.40;5.75;;;27.50;99.90;;;;;;5012555;28;20034;-52
2023/08/10 02:36:24;;;;;;;17.17;6.68;;;27.50;99.90;;;;;;5013201;28;20053;-53
2023/08/10 02:38:50;;;;;;;19.15;6.95;;;27.50;99.90;;;;;;5013403;28;20034;-52
2023/08/10 02:41:15;;;;;;;20.55;7.93;;;27.50;99.90;;;;;;5011651;28;20072;-52
2023/08/10 02:43:41;;;;;;;20.20;7.82;;;27.50;99.90;;;;;;5013525;28;20057;-52
2023/08/10 02:46:08;;;;;;;23.25;7.93;;;27.50;99.90;;;;;;5012948;28;20390;-52
2023/08/10 02:48:34;;;;;;;19.17;7.27;;;27.50;99.90;;;;;;5013185;28;20022;-52
2023/08/10 02:50:59;;;;;;;14.20;6.90;;;27.50;99.90;;;;;;5013307;28;20024;-52
2023/08/10 02:53:25;;;;;;;18.27;7.88;;;27.50;99.90;;;;;;5012986;28;20497;-51
2023/08/10 02:55:51;;;;;;;17.30;8.30;;;27.50;99.90;;;;;;5013252;28;20037;-52
2023/08/10 02:58:17;;;;;;;28.52;8.50;;;27.50;99.90;;;;;;5012903;28;20028;-52
2023/08/10 03:00:43;;;;;;;20.92;8.35;;;27.40;99.90;;;;;;5012060;28;20044;-52
2023/08/10 03:03:09;;;;;;;18.60;7.80;;;27.40;99.90;;;;;;5012746;28;20022;-51
2023/08/10 03:05:35;;;;;;;19.38;7.82;;;27.40;99.90;;;;;;5012749;28;20029;-53
2023/08/10 03:08:01;;;;;;;23.08;8.98;;;27.40;99.90;;;;;;5011240;28;20038;-52
2023/08/10 03:10:27;;;;;;;20.20;7.75;;;27.30;99.90;;;;;;5012544;28;20097;-52
2023/08/10 03:12:52;;;;;;;17.92;8.75;;;27.30;99.90;;;;;;5012719;28;20060;-52
2023/08/10 03:15:18;;;;;;;20.75;8.80;;;27.30;99.90;;;;;;5012460;28;20034;-52
2023/08/10 03:17:44;;;;;;;22.67;8.15;;;27.20;99.90;;;;;;5012486;28;20060;-53
2023/08/10 03:20:14;;;;;;;15.77;8.15;;;27.20;99.90;;;;;;5012429;28;20108;-52
2023/08/10 03:22:40;;;;;;;19.33;8.90;;;27.10;99.90;;;;;;5012421;28;20096;-52
2023/08/10 03:25:07;;;;;;;21.65;8.38;;;27.10;99.90;;;;;;5012415;28;20026;-52
2023/08/10 03:27:33;;;;;;;18.70;7.05;;;27.10;99.90;;;;;;5012331;28;20034;-52
2023/08/10 03:29:59;;;;;;;16.75;7.13;;;27.10;99.90;;;;;;5012296;28;20018;-52
2023/08/10 03:32:24;;;;;;;14.93;6.80;;;27.10;99.90;;;;;;5011032;28;20112;-52
2023/08/10 03:34:51;;;;;;;23.38;8.02;;;27.10;99.90;;;;;;5012133;28;20022;-52
2023/08/10 03:37:16;;;;;;;19.17;7.10;;;27.10;99.90;;;;;;5010903;28;20164;-52
2023/08/10 03:39:42;;;;;;;15.55;7.25;;;27.10;99.90;;;;;;5011985;28;20022;-52
2023/08/10 03:42:08;;;;;;;22.13;7.65;;;27.00;99.90;;;;;;5012121;28;20022;-53
2023/08/10 03:44:34;;;;;;;19.25;8.20;;;27.00;99.90;;;;;;5011808;28;20049;-52
2023/08/10 03:46:59;;;;;;;18.80;7.78;;;27.00;99.90;;;;;;5012109;28;20049;-52
2023/08/10 03:49:25;;;;;;;18.23;7.38;;;27.10;99.90;;;;;;5012363;28;20080;-52
2023/08/10 03:51:51;;;;;;;20.17;7.43;;;27.00;99.90;;;;;;5012013;28;20022;-52
2023/08/10 03:54:17;;;;;;;19.67;8.10;;;27.00;99.90;;;;;;5011912;28;20040;-52
2023/08/10 03:56:43;;;;;;;20.33;8.70;;;27.00;99.90;;;;;;5011990;28;20138;-52
2023/08/10 03:59:10;;;;;;;18.27;8.00;;;27.00;99.90;;;;;;5010784;28;20022;-52
2023/08/10 04:01:36;;;;;;;21.45;6.88;;;27.00;99.90;;;;;;5010862;28;20049;-51
2023/08/10 04:04:03;;;;;;;20.15;7.40;;;27.00;99.90;;;;;;5011652;28;20470;-52
2023/08/10 04:06:29;;;;;;;15.57;6.60;;;27.00;99.90;;;;;;5010889;28;20026;-52
2023/08/10 04:08:55;;;;;;;18.90;6.78;;;27.00;99.90;;;;;;5011928;28;20064;-52
2023/08/10 04:11:21;;;;;;;18.35;7.28;;;27.00;99.90;;;;;;5011714;28;20026;-52
2023/08/10 04:13:47;;;;;;;17.67;6.85;;;27.00;99.90;;;;;;5011783;28;20040;-52
2023/08/10 04:16:13;;;;;;;16.95;6.57;;;27.00;99.90;;;;;;5011774;28;20049;-52
2023/08/10 04:18:39;;;;;;;21.60;7.50;;;27.00;99.90;;;;;;5011814;28;20030;-52
2023/08/10 04:21:05;;;;;;;33.85;7.80;;;27.00;99.90;;;;;;5011513;28;20095;-52
2023/08/10 04:23:31;;;;;;;22.88;8.82;;;27.00;99.90;;;;;;5011467;28;20032;-52
2023/08/10 04:25:57;;;;;;;21.48;9.15;;;27.00;99.90;;;;;;5011597;28;20056;-52
2023/08/10 04:28:23;;;;;;;21.23;8.15;;;26.90;99.90;;;;;;5011498;28;20120;-52
2023/08/10 04:30:49;;;;;;;23.48;8.60;;;26.90;99.90;;;;;;5010337;28;20026;-52
2023/08/10 04:33:15;;;;;;;25.15;8.20;;;26.80;99.90;;;;;;5011510;28;20034;-52
2023/08/10 04:35:40;;;;;;;19.88;7.18;;;26.80;99.90;;;;;;5011509;28;20101;-52
2023/08/10 04:38:06;;;;;;;18.35;7.80;;;26.80;99.90;;;;;;5011271;28;20033;-51
2023/08/10 04:40:32;;;;;;;16.35;6.80;;;26.80;99.90;;;;;;5011497;28;20022;-52
2023/08/10 04:42:59;;;;;;;17.10;6.40;;;26.80;99.90;;;;;;5011692;28;20026;-51
2023/08/10 04:45:25;;;;;;;18.77;6.45;;;26.70;99.90;;;;;;5011437;28;20096;-53
2023/08/10 04:47:51;;;;;;;17.13;6.75;;;26.70;99.90;;;;;;5011347;28;20030;-52
2023/08/10 04:50:17;;;;;;;25.90;7.75;;;26.70;99.90;;;;;;5011358;28;20022;-52
2023/08/10 04:52:43;;;;;;;21.67;7.35;;;26.70;99.90;;;;;;5011279;28;20473;-52
2023/08/10 04:55:10;;;;;;;19.75;7.20;;;26.70;99.90;;;;;;5011359;28;20497;-52
2023/08/10 04:57:38;;;;;;;16.25;5.82;;;26.80;99.90;;;;;;5014887;28;20030;-52
2023/08/10 05:00:15;;;;;;;16.45;7.25;;;26.80;99.90;;;;;;5013647;28;20022;-52
2023/08/10 05:02:41;;;;;;;16.58;6.53;;;26.80;99.90;;;;;;4979127;28;20078;-52
2023/08/10 05:05:09;;;;;;;13.87;6.00;;;26.80;99.90;;;;;;4993998;28;20031;-52
2023/08/10 05:07:37;;;;;;;16.55;6.75;;;26.90;99.90;;;;;;4993886;28;20145;-52
2023/08/10 05:10:05;;;;;;;18.55;6.45;;;26.90;99.90;;;;;;4994692;28;20106;-52
2023/08/10 05:12:32;;;;;;;23.05;6.95;;;27.00;99.90;;;;;;4995579;28;20026;-52
2023/08/10 05:14:57;;;;;;;15.10;6.78;;;27.00;99.90;;;;;;4995121;28;20497;-53
2023/08/10 05:17:23;;;;;;;17.98;6.88;;;27.00;99.90;;;;;;4995086;28;20034;-52
2023/08/10 05:19:49;;;;;;;16.08;7.03;;;27.00;99.90;;;;;;4994971;28;20121;-52
2023/08/10 05:22:15;;;;;;;17.25;7.93;;;27.00;99.90;;;;;;4993626;28;20030;-52
2023/08/10 05:24:40;;;;;;;25.05;8.90;;;27.00;99.90;;;;;;4995163;28;20034;-52
2023/08/10 05:27:06;;;;;;;18.75;9.10;;;27.00;99.90;;;;;;4994765;28;20386;-52
2023/08/10 05:29:32;;;;;;;20.55;7.90;;;27.00;99.90;;;;;;5008639;28;20544;-52
2023/08/10 05:31:58;;;;;;;20.20;7.57;;;27.00;99.90;;;;;;5014689;28;20458;-52
2023/08/10 05:34:24;;;;;;;21.67;8.13;;;27.00;99.90;;;;;;5014383;28;20066;-52
2023/08/10 05:36:50;;;;;;;25.45;9.38;;;27.00;99.90;;;;;;5014539;28;20421;-52
2023/08/10 05:39:16;;;;;;;22.55;8.80;;;27.00;99.90;;;;;;5014297;28;20390;-52
2023/08/10 05:41:42;;;;;;;19.23;12.43;;;27.00;99.90;;;;;;5014208;28;20022;-52
2023/08/10 05:44:08;;;;;;;20.40;8.85;;;27.00;99.90;;;;;;5014275;28;20014;-52
2023/08/10 05:46:33;;;;;;;31.02;18.80;;;27.00;99.90;;;;;;5014400;28;20423;-52
2023/08/10 05:48:59;;;;;;;20.75;9.73;;;26.90;99.90;;;;;;5014050;28;20061;-52
2023/08/10 05:51:25;;;;;;;24.02;10.93;;;26.90;99.90;;;;;;5012838;28;20030;-52
2023/08/10 05:53:51;;;;;;;20.92;9.90;;;26.90;99.90;;;;;;5014200;28;20479;-52
2023/08/10 05:56:16;;;;;;;24.55;10.85;;;26.90;99.90;;;;;;5013995;28;20034;-52
2023/08/10 05:58:42;;;;;;;26.90;9.80;;;27.00;99.90;;;;;;5012473;28;20172;-52
2023/08/10 06:01:08;;;;;;;28.58;8.55;;;27.00;99.90;;;;;;5012352;28;20077;-52
2023/08/10 06:03:34;;;;;;;29.88;13.50;;;27.00;99.90;;;;;;5013899;28;20041;-52
2023/08/10 06:06:00;;;;;;;29.77;11.73;;;27.00;99.90;;;;;;5013586;28;20029;-52
2023/08/10 06:08:27;;;;;;;32.53;13.83;;;27.00;99.90;;;;;;5012383;28;20041;-52
2023/08/10 06:10:53;;;;;;;28.17;13.93;;;27.00;99.90;;;;;;5013673;28;20018;-52
2023/08/10 06:13:18;;;;;;;30.85;10.98;;;27.00;99.90;;;;;;5013621;28;20033;-52
2023/08/10 06:15:46;;;;;;;35.08;10.82;;;27.00;99.90;;;;;;5013554;28;20030;-52
2023/08/10 06:18:13;;;;;;;26.83;10.32;;;27.00;99.90;;;;;;5013387;28;20026;-52
2023/08/10 06:20:39;;;;;;;31.10;9.20;;;27.00;99.90;;;;;;5013605;28;20038;-52
2023/08/10 06:23:05;;;;;;;28.50;9.50;;;27.00;99.90;;;;;;5013672;28;20068;-52
2023/08/10 06:25:31;;;;;;;26.75;8.32;;;27.00;99.90;;;;;;5013495;28;20426;-53
2023/08/10 06:28:00;;;;;;;27.95;8.65;;;27.10;99.90;;;;;;5013227;28;20084;-52
2023/08/10 06:30:26;;;;;;;25.25;9.30;;;27.10;99.90;;;;;;5013358;28;20101;-52
2023/08/10 06:32:52;;;;;;;22.45;9.00;;;27.10;99.90;;;;;;5013299;28;20133;-52
2023/08/10 06:35:21;;;;;;;28.20;9.77;;;27.10;99.90;;;;;;5013295;28;20033;-56
2023/08/10 06:37:50;;;;;;;22.83;11.02;;;27.10;99.90;;;;;;5013467;28;20026;-52
2023/08/10 06:40:16;;;;;;;30.20;10.48;;;27.20;99.90;;;;;;5013188;28;20033;-52
2023/08/10 06:42:42;;;;;;;29.48;9.77;;;27.20;99.90;;;;;;5013156;28;20030;-52
2023/08/10 06:45:08;;;;;;;44.80;9.88;;;27.20;99.90;;;;;;5013248;28;20390;-52
2023/08/10 06:47:35;;;;;;;37.42;9.48;;;27.20;99.90;;;;;;5013322;28;20355;-52
2023/08/10 06:50:01;;;;;;;52.75;11.05;;;27.20;99.90;;;;;;5013177;28;20030;-52
2023/08/10 06:52:27;;;;;;;51.92;16.42;;;27.30;99.90;;;;;;5012930;28;20037;-52
2023/08/10 06:54:53;;;;;;;36.05;9.73;;;27.20;99.90;;;;;;5013016;28;20386;-52
2023/08/10 06:57:20;;;;;;;51.03;17.83;;;27.30;99.90;;;;;;5013055;28;20496;-52
2023/08/10 06:59:46;;;;;;;;;;;27.30;99.90;;;;;;5013283;28;20018;-52
2023/08/10 07:02:12;;;;;;;27.80;9.30;;;27.40;99.90;;;;;;5012747;28;20262;-55
2023/08/10 07:04:39;;;;;;;30.65;7.93;;;27.40;99.90;;;;;;5013300;28;20033;-52
2023/08/10 07:07:05;;;;;;;40.08;21.42;;;27.40;99.90;;;;;;5011413;28;20037;-52
2023/08/10 07:09:31;;;;;;;40.40;17.75;;;27.40;99.90;;;;;;5012819;28;20040;-52
2023/08/10 07:11:57;;;;;;;24.30;13.80;;;27.50;99.90;;;;;;5012632;28;20069;-52
2023/08/10 07:14:23;;;;;;;40.67;17.27;;;27.50;99.90;;;;;;5012508;28;20084;-51
2023/08/10 07:16:49;;;;;;;38.45;20.70;;;27.50;99.90;;;;;;5012536;28;20022;-52
2023/08/10 07:19:15;;;;;;;22.88;9.43;;;27.60;99.90;;;;;;5011883;28;20456;-53
2023/08/10 07:21:41;;;;;;;21.30;9.30;;;27.60;99.90;;;;;;5012782;28;20407;-52
2023/08/10 07:24:07;;;;;;;27.38;11.23;;;27.60;99.90;;;;;;5012511;28;20037;-51
2023/08/10 07:26:33;;;;;;;24.10;8.15;;;27.60;99.90;;;;;;5012385;28;20029;-52
2023/08/10 07:28:59;;;;;;;25.55;10.23;;;27.60;99.90;;;;;;5012372;28;20030;-52
2023/08/10 07:31:31;;;;;;;19.02;8.82;;;27.70;99.90;;;;;;5012206;28;20065;-51
2023/08/10 07:34:00;;;;;;;30.35;11.05;;;27.70;99.90;;;;;;5012245;28;20500;-52
2023/08/10 07:36:26;;;;;;;39.15;16.75;;;27.70;99.90;;;;;;5012023;28;20079;-52
2023/08/10 07:38:55;;;;;;;25.90;8.23;;;27.70;99.90;;;;;;5010926;28;20022;-52
2023/08/10 07:41:21;;;;;;;33.05;13.38;;;27.80;99.90;;;;;;5011991;28;20026;-52
2023/08/10 07:43:47;;;;;;;21.65;6.55;;;27.80;99.90;;;;;;5011994;28;20104;-52
2023/08/10 07:46:13;;;;;;;20.42;7.00;;;27.80;99.90;;;;;;5012324;28;20486;-53
2023/08/10 07:48:39;;;;;;;17.45;7.07;;;27.80;99.90;;;;;;5012181;28;20036;-52
2023/08/10 07:51:06;;;;;;;20.33;8.05;;;27.80;99.90;;;;;;5012007;28;20104;-52
2023/08/10 07:53:33;;;;;;;18.77;6.25;;;27.80;99.90;;;;;;5011998;28;20025;-53
2023/08/10 07:55:59;;;;;;;20.42;6.32;;;27.80;99.90;;;;;;5011941;28;20385;-52
2023/08/10 07:58:25;;;;;;;20.80;7.95;;;27.80;99.90;;;;;;5011792;28;20020;-53
2023/08/10 08:00:51;;;;;;;18.13;6.47;;;27.80;99.90;;;;;;5011833;28;20046;-52
2023/08/10 08:03:17;;;;;;;13.98;6.30;;;27.80;99.90;;;;;;5011855;28;20021;-53
2023/08/10 08:05:43;;;;;;;19.55;7.10;;;27.70;99.90;;;;;;5012103;28;20089;-52
2023/08/10 08:08:09;;;;;;;18.30;7.63;;;27.80;99.90;;;;;;5011769;28;20030;-52
2023/08/10 08:10:35;;;;;;;19.25;7.50;;;27.70;99.90;;;;;;5011868;28;20026;-52
2023/08/10 08:13:03;;;;;;;16.17;7.13;;;27.70;99.90;;;;;;5011995;28;20026;-52
2023/08/10 08:15:29;;;;;;;21.83;7.88;;;27.70;99.90;;;;;;5010360;28;20117;-52
2023/08/10 08:18:34;;;;;;;20.38;7.32;;;27.70;99.90;;;;;;5010675;28;20425;-52
2023/08/10 08:21:00;;;;;;;20.23;8.02;;;27.80;99.90;;;;;;5011880;28;20025;-52
2023/08/10 08:23:26;;;;;;;21.35;7.10;;;27.70;99.90;;;;;;5011839;28;20022;-52
2023/08/10 08:25:51;;;;;;;14.45;6.45;;;27.70;99.90;;;;;;5011947;28;20029;-53
2023/08/10 08:28:17;;;;;;;15.60;6.13;;;27.70;99.90;;;;;;5011591;28;20072;-52
2023/08/10 08:30:43;;;;;;;18.05;7.35;;;27.70;99.90;;;;;;5014901;28;20045;-52
2023/08/10 08:33:09;;;;;;;17.55;7.10;;;27.70;99.90;;;;;;5015574;28;20422;-52
2023/08/10 08:35:35;;;;;;;21.80;6.95;;;27.60;99.90;;;;;;5015493;28;20064;-52
2023/08/10 08:38:01;;;;;;;19.58;6.97;;;27.60;99.90;;;;;;5015579;28;20033;-52
2023/08/10 08:40:27;;;;;;;17.42;6.05;;;27.60;99.90;;;;;;5015499;28;20470;-52
2023/08/10 08:42:54;;;;;;;16.08;6.50;;;27.60;99.90;;;;;;5015461;28;20022;-52
2023/08/10 08:45:20;;;;;;;15.13;6.43;;;27.70;99.90;;;;;;5015569;28;20026;-51
2023/08/10 08:47:47;;;;;;;20.35;6.72;;;27.70;99.90;;;;;;5013994;28;20405;-52
2023/08/10 08:50:15;;;;;;;20.08;6.78;;;27.70;99.90;;;;;;5014019;28;20030;-51
2023/08/10 08:52:43;;;;;;;18.05;6.57;;;27.80;99.90;;;;;;5015396;28;20022;-52
2023/08/10 08:55:11;;;;;;;14.25;6.55;;;27.80;99.90;;;;;;5015503;28;20439;-52
2023/08/10 08:57:38;;;;;;;16.08;6.45;;;27.80;99.90;;;;;;5015277;28;20029;-51
2023/08/10 09:00:04;;;;;;;18.35;6.25;;;27.80;99.90;;;;;;5015267;28;20018;-51
2023/08/10 09:02:31;;;;;;;17.27;5.82;;;27.80;99.90;;;;;;5014986;28;20057;-52
2023/08/10 09:04:59;;;;;;;18.35;6.00;;;27.80;99.90;;;;;;5015090;28;20018;-52
2023/08/10 09:07:28;;;;;;;19.20;7.28;;;27.90;99.90;;;;;;5015212;28;20367;-51
2023/08/10 09:09:54;;;;;;;18.17;5.60;;;27.90;99.90;;;;;;5014997;28;20041;-50
2023/08/10 09:12:30;;;;;;;13.50;5.80;;;28.00;99.90;;;;;;5014987;28;20029;-52
2023/08/10 09:15:03;;;;;;;14.30;5.55;;;28.00;99.90;;;;;;5014879;28;20385;-51
2023/08/10 09:17:28;;;;;;;15.40;6.82;;;28.00;99.90;;;;;;5013796;28;20413;-51
2023/08/10 09:19:54;;;;;;;14.85;6.47;;;28.00;99.90;;;;;;5015011;28;20095;-52
2023/08/10 09:22:35;;;;;;;13.65;5.70;;;28.10;99.90;;;;;;5013867;28;20026;-51
2023/08/10 09:25:02;;;;;;;10.25;5.05;;;28.10;99.90;;;;;;5014888;28;20022;-52
2023/08/10 09:27:28;;;;;;;14.23;4.57;;;28.10;99.90;;;;;;5014496;28;20044;-52
2023/08/10 09:29:59;;;;;;;13.57;4.53;;;28.20;99.90;;;;;;5014632;28;20038;-51
2023/08/10 09:32:25;;;;;;;12.82;4.28;;;28.20;99.90;;;;;;5013600;28;20022;-50
2023/08/10 09:34:53;;;;;;;11.52;4.55;;;28.30;99.90;;;;;;5014809;28;20022;-51
2023/08/10 09:37:20;;;;;;;14.63;4.57;;;28.30;99.90;;;;;;5014749;28;20386;-52
2023/08/10 09:39:46;;;;;;;13.50;5.47;;;28.40;99.90;;;;;;5014494;28;20048;-52
2023/08/10 09:42:12;;;;;;;11.30;4.23;;;28.40;99.90;;;;;;5013735;28;20030;-51
2023/08/10 09:44:49;;;;;;;9.60;5.13;;;28.40;99.90;;;;;;5014558;28;20128;-52
2023/08/10 09:47:16;;;;;;;10.93;5.82;;;28.40;99.90;;;;;;5014328;28;20022;-51
2023/08/10 09:49:58;;;;;;;16.13;5.80;;;28.50;99.90;;;;;;5014086;28;20044;-51
2023/08/10 09:52:25;;;;;;;14.65;7.22;;;28.60;99.90;;;;;;5013097;28;20028;-52
2023/08/10 09:54:54;;;;;;;16.02;6.18;;;28.50;99.90;;;;;;5014407;28;20026;-52
2023/08/10 09:57:21;;;;;;;12.55;5.68;;;28.50;99.90;;;;;;5014298;28;20423;-51
2023/08/10 09:59:47;;;;;;;17.50;8.75;;;28.50;99.90;;;;;;5013767;28;20088;-51
2023/08/10 10:02:15;;;;;;;21.70;12.93;;;28.50;99.90;;;;;;5013908;28;20042;-52
2023/08/10 10:04:42;;;;;;;27.42;17.80;;;28.60;99.90;;;;;;5013841;28;20047;-52
2023/08/10 10:07:09;;;;;;;16.60;7.82;;;28.60;99.90;;;;;;5013898;28;20036;-52
2023/08/10 10:09:38;;;;;;;;;;;28.60;99.90;;;;;;5014241;28;20041;-52
2023/08/10 10:12:11;;;;;;;17.23;5.57;;;28.60;99.90;;;;;;5013747;28;20314;-52
2023/08/10 10:14:45;;;;;;;11.77;6.25;;;28.60;99.90;;;;;;5013458;28;20018;-52
2023/08/10 10:17:12;;;;;;;14.60;6.82;;;28.60;99.90;;;;;;5013369;28;20030;-52
2023/08/10 10:19:42;;;;;;;15.52;7.20;;;28.60;99.90;;;;;;5013650;28;20056;-52
2023/08/10 10:22:09;;;;;;;14.63;7.82;;;28.60;99.90;;;;;;5013628;28;20030;-51
2023/08/10 10:24:39;;;;;;;18.13;11.63;;;28.60;99.90;;;;;;5013630;28;20407;-52
2023/08/10 10:27:11;;;;;;;17.60;8.68;;;28.40;99.90;;;;;;5013456;28;20113;-52
2023/08/10 10:29:43;;;;;;;17.58;12.55;;;28.40;99.90;;;;;;5013753;28;20025;-53
2023/08/10 10:32:13;;;;;;;13.80;7.43;;;28.30;99.90;;;;;;5013316;28;20054;-52
2023/08/10 10:34:41;;;;;;;16.63;10.65;;;28.30;99.90;;;;;;5013244;28;20029;-52
2023/08/10 10:37:30;;;;;;;14.15;8.43;;;28.10;99.90;;;;;;5013267;28;20378;-52
2023/08/10 10:40:18;;;;;;;15.75;9.75;;;28.10;99.90;;;;;;5003233;28;20087;-51
2023/08/10 10:43:06;;;;;;;20.50;13.80;;;28.00;99.90;;;;;;5013031;28;20041;-52
2023/08/10 10:45:37;;;;;;;13.00;9.73;;;27.90;99.90;;;;;;5013138;28;20018;-51
2023/08/10 10:48:06;;;;;;;14.77;12.02;;;27.90;99.90;;;;;;5013184;28;20045;-51
2023/08/10 10:50:33;;;;;;;13.68;9.45;;;27.80;99.90;;;;;;5011781;28;20022;-52
2023/08/10 10:53:05;;;;;;;13.77;7.97;;;27.70;99.90;;;;;;5011828;28;20028;-51
2023/08/10 10:55:34;;;;;;;17.05;10.73;;;27.60;99.90;;;;;;5012814;28;20192;-52
2023/08/10 10:58:04;;;;;;;15.35;8.82;;;27.70;99.90;;;;;;5011647;28;20026;-51
2023/08/10 11:00:30;;;;;;;12.40;9.05;;;27.60;99.90;;;;;;5011409;28;20030;-52
2023/08/10 11:02:56;;;;;;;11.57;8.68;;;27.60;99.90;;;;;;5012769;28;20429;-51
2023/08/10 11:05:22;;;;;;;13.68;8.02;;;27.60;99.90;;;;;;5012788;28;20437;-51
2023/08/10 11:07:51;;;;;;;10.80;8.60;;;27.60;99.90;;;;;;5012499;28;20112;-52
2023/08/10 11:10:20;;;;;;;10.35;6.78;;;27.50;99.90;;;;;;5012595;28;20161;-52
2023/08/10 11:15:29;;;;;;;11.65;7.40;;;27.60;99.90;;;;;;5109414;27;20814;-51
2023/08/10 11:17:55;;;;;;;8.98;6.80;;;27.60;99.90;;;;;;5109624;28;20085;-52
2023/08/10 11:20:21;;;;;;;14.63;9.73;;;27.60;99.90;;;;;;5109288;28;20028;-52
2023/08/10 11:22:48;;;;;;;17.27;8.23;;;27.60;99.90;;;;;;5109329;28;20024;-52
2023/08/10 11:25:16;;;;;;;13.80;8.23;;;27.60;99.90;;;;;;5109315;28;20102;-51
2023/08/10 11:27:49;;;;;;;13.45;8.35;;;27.60;99.90;;;;;;5109314;28;20039;-52
2023/08/10 11:30:20;;;;;;;15.68;8.70;;;27.60;99.90;;;;;;5108067;28;20028;-52
2023/08/10 11:32:48;;;;;;;17.35;12.15;;;27.60;99.90;;;;;;5105634;28;20039;-51
2023/08/10 11:35:19;;;;;;;19.25;12.95;;;27.60;99.90;;;;;;5108473;28;20376;-51
2023/08/10 11:37:45;;;;;;;19.30;11.38;;;27.70;99.90;;;;;;5107245;28;20357;-52
2023/08/10 11:40:22;;;;;;;16.13;9.93;;;27.70;99.90;;;;;;5108177;28;20353;-51
2023/08/10 11:43:14;;;;;;;;;;;27.80;99.90;;;;;;5109311;28;20416;-51
2023/08/10 11:45:42;;;;;;;12.07;7.47;;;27.80;99.90;;;;;;5109003;28;20275;-51
2023/08/10 11:48:10;;;;;;;16.02;8.95;;;27.80;99.90;;;;;;5109029;28;20051;-52
2023/08/10 11:50:38;;;;;;;;;;;27.80;99.90;;;;;;5108858;28;20019;-52
2023/08/10 11:53:15;;;;;;;13.98;8.60;;;27.90;99.90;;;;;;5107981;28;19915;-52
2023/08/10 11:55:46;;;;;;;19.75;10.40;;;27.90;99.90;;;;;;5108145;28;20036;-52
2023/08/10 11:58:13;;;;;;;16.35;8.85;;;28.00;99.90;;;;;;5108158;28;20020;-52
2023/08/10 12:00:41;;;;;;;15.85;9.98;;;28.00;99.90;;;;;;5108137;28;20012;-51
2023/08/10 12:03:13;;;;;;;11.85;8.13;;;28.00;99.90;;;;;;5105675;28;20027;-51
2023/08/10 12:05:52;;;;;;;13.90;7.00;;;27.90;99.90;;;;;;5108452;28;20035;-52
2023/08/10 12:08:29;;;;;;;10.60;6.35;;;27.90;99.90;;;;;;5108630;28;20392;-52
2023/08/10 12:11:06;;;;;;;8.87;6.73;;;27.90;99.90;;;;;;5108642;28;20031;-52
2023/08/10 12:13:32;;;;;;;;;;;27.80;99.90;;;;;;5105984;28;20043;-52
2023/08/10 12:16:02;;;;;;;13.30;8.15;;;27.80;99.90;;;;;;5108147;28;19907;-52
2023/08/10 12:18:28;;;;;;;16.67;9.50;;;27.80;99.90;;;;;;5108457;28;20032;-52
2023/08/10 12:20:54;;;;;;;11.90;7.55;;;27.90;99.90;;;;;;5107991;28;20043;-52
2023/08/10 12:23:21;;;;;;;20.83;11.75;;;27.90;99.90;;;;;;5108218;28;20027;-53
2023/08/10 12:25:48;;;;;;;21.77;13.77;;;28.00;99.90;;;;;;5100852;28;20451;-52
2023/08/10 12:28:15;;;;;;;19.83;11.50;;;28.00;99.90;;;;;;5094631;28;20024;-53
2023/08/10 12:30:41;;;;;;;;;;;28.00;99.90;;;;;;5095008;28;20369;-52
2023/08/10 12:33:09;;;;;;;11.85;7.32;;;28.00;99.90;;;;;;5093137;28;20504;-52
2023/08/10 12:35:35;;;;;;;16.95;10.00;;;28.00;99.90;;;;;;5090891;28;20024;-52
2023/08/10 12:38:03;;;;;;;19.75;12.27;;;28.00;99.90;;;;;;5093729;28;20038;-52
2023/08/10 12:40:30;;;;;;;21.05;13.70;;;28.00;99.90;;;;;;5093274;28;20046;-52
2023/08/10 12:42:55;;;;;;;25.67;15.93;;;28.00;99.90;;;;;;5094355;28;20060;-52